createdAt,value
2022-09-28T00:01:15.621Z,25.90
2022-09-28T00:03:44.122Z,25.90
2022-09-28T00:06:12.668Z,25.80
2022-09-28T00:08:40.910Z,25.80
2022-09-28T00:11:11.521Z,25.80
2022-09-28T00:13:39.041Z,25.80
2022-09-28T00:16:08.103Z,25.80
2022-09-28T00:18:39.588Z,25.80
2022-09-28T00:21:08.996Z,25.80
2022-09-28T00:23:51.082Z,25.80
2022-09-28T00:26:18.653Z,25.80
2022-09-28T00:28:46.380Z,25.80
2022-09-28T00:31:14.297Z,25.80
2022-09-28T00:33:45.141Z,25.80
2022-09-28T00:36:15.636Z,25.80
2022-09-28T00:38:43.270Z,25.80
2022-09-28T00:41:15.148Z,25.80
2022-09-28T00:43:43.087Z,25.70
2022-09-28T00:46:15.235Z,25.70
2022-09-28T00:48:46.535Z,25.80
2022-09-28T00:51:15.009Z,25.80
2022-09-28T00:53:44.303Z,25.80
2022-09-28T00:56:16.388Z,25.80
2022-09-28T00:58:47.175Z,25.80
2022-09-28T01:01:15.005Z,25.80
2022-09-28T01:03:49.282Z,25.80
2022-09-28T01:06:25.060Z,25.80
2022-09-28T01:08:54.258Z,25.80
2022-09-28T01:11:21.950Z,25.80
2022-09-28T01:14:06.601Z,25.90
2022-09-28T01:16:47.300Z,25.90
2022-09-28T01:19:35.241Z,25.90
2022-09-28T01:22:19.603Z,25.90
2022-09-28T01:24:48.438Z,25.90
2022-09-28T01:27:36.397Z,25.90
2022-09-28T01:30:12.455Z,26.00
2022-09-28T01:32:48.466Z,26.00
2022-09-28T01:35:22.197Z,26.00
2022-09-28T01:37:54.229Z,26.00
2022-09-28T01:40:23.904Z,26.00
2022-09-28T01:42:59.092Z,26.00
2022-09-28T01:45:30.355Z,26.00
2022-09-28T01:48:40.031Z,26.00
2022-09-28T01:51:10.300Z,26.00
2022-09-28T01:53:47.293Z,26.00
2022-09-28T01:56:34.474Z,25.90
2022-09-28T01:59:14.347Z,25.90
2022-09-28T02:01:44.573Z,25.90
2022-09-28T02:04:15.474Z,25.90
2022-09-28T02:06:55.535Z,25.90
2022-09-28T02:09:27.011Z,25.90
2022-09-28T02:12:00.999Z,26.00
2022-09-28T02:14:30.372Z,26.00
2022-09-28T02:16:59.861Z,26.00
2022-09-28T02:19:30.577Z,26.00
2022-09-28T02:22:12.029Z,26.00
2022-09-28T02:24:51.990Z,26.00
2022-09-28T02:27:24.975Z,26.10
2022-09-28T02:29:52.592Z,26.10
2022-09-28T02:32:21.800Z,26.10
2022-09-28T02:34:51.725Z,26.10
2022-09-28T02:37:20.430Z,26.10
2022-09-28T02:39:48.698Z,26.10
2022-09-28T02:42:21.992Z,26.10
2022-09-28T02:45:15.820Z,26.10
2022-09-28T02:48:03.948Z,26.10
2022-09-28T02:50:51.134Z,26.10
2022-09-28T02:53:41.359Z,26.20
2022-09-28T02:56:21.103Z,26.20
2022-09-28T02:59:00.898Z,26.20
2022-09-28T03:01:44.217Z,26.40
2022-09-28T03:04:18.189Z,26.20
2022-09-28T03:06:56.811Z,26.20
2022-09-28T03:09:30.011Z,26.20
2022-09-28T03:11:59.391Z,26.20
2022-09-28T03:14:27.683Z,26.20
2022-09-28T03:16:55.277Z,26.20
2022-09-28T03:19:26.431Z,26.20
2022-09-28T03:21:55.630Z,26.20
2022-09-28T03:24:26.323Z,26.20
2022-09-28T03:26:57.706Z,26.20
2022-09-28T03:29:25.488Z,26.20
2022-09-28T03:31:53.196Z,26.20
2022-09-28T03:34:21.156Z,26.20
2022-09-28T03:36:50.415Z,26.20
2022-09-28T03:39:20.680Z,26.20
2022-09-28T03:41:48.264Z,26.20
2022-09-28T03:44:15.780Z,26.20
2022-09-28T03:46:44.149Z,26.20
2022-09-28T03:52:12.149Z,26.20
2022-09-28T03:54:40.677Z,26.20
2022-09-28T03:57:08.245Z,26.10
2022-09-28T03:59:37.729Z,26.10
2022-09-28T04:02:06.179Z,26.10
2022-09-28T04:04:33.864Z,26.10
2022-09-28T04:07:01.431Z,26.10
2022-09-28T04:09:29.145Z,26.10
2022-09-28T04:14:41.712Z,26.10
2022-09-28T04:17:13.349Z,26.10
2022-09-28T04:22:30.157Z,26.10
2022-09-28T04:27:56.155Z,26.00
2022-09-28T04:33:12.271Z,26.00
2022-09-28T04:35:41.236Z,26.00
2022-09-28T04:38:08.704Z,26.00
2022-09-28T04:40:36.227Z,26.10
2022-09-28T04:43:04.240Z,26.10
2022-09-28T04:45:31.799Z,26.10
2022-09-28T04:47:59.490Z,26.10
2022-09-28T04:50:27.063Z,26.10
2022-09-28T04:52:54.776Z,26.10
2022-09-28T04:55:22.432Z,26.10
2022-09-28T04:57:49.930Z,26.10
2022-09-28T05:00:17.602Z,26.20
2022-09-28T05:02:46.542Z,26.20
2022-09-28T05:05:14.047Z,26.20
2022-09-28T05:07:42.169Z,26.30
2022-09-28T05:10:09.943Z,26.30
2022-09-28T05:12:38.219Z,26.30
2022-09-28T05:15:06.194Z,26.30
2022-09-28T05:17:33.824Z,26.30
2022-09-28T05:20:03.081Z,26.40
2022-09-28T05:22:31.424Z,26.30
2022-09-28T05:25:01.574Z,26.30
2022-09-28T05:27:29.503Z,26.40
2022-09-28T05:29:57.052Z,26.30
2022-09-28T05:32:25.474Z,26.30
2022-09-28T05:34:56.970Z,26.30
2022-09-28T05:37:27.887Z,26.40
2022-09-28T05:40:15.017Z,26.40
2022-09-28T05:42:43.722Z,26.40
2022-09-28T05:45:15.462Z,26.40
2022-09-28T05:47:46.320Z,26.40
2022-09-28T05:50:16.698Z,26.50
2022-09-28T05:52:44.791Z,26.50
2022-09-28T05:55:12.756Z,26.50
2022-09-28T05:57:45.304Z,26.50
2022-09-28T06:00:14.015Z,26.50
2022-09-28T06:02:43.059Z,26.60
2022-09-28T06:05:10.729Z,26.60
2022-09-28T06:07:39.218Z,26.70
2022-09-28T06:10:07.801Z,26.70
2022-09-28T06:12:35.993Z,26.70
2022-09-28T06:15:03.885Z,26.70
2022-09-28T06:17:32.237Z,26.80
2022-09-28T06:20:00.578Z,26.80
2022-09-28T06:22:45.233Z,26.80
2022-09-28T06:25:13.506Z,26.70
2022-09-28T06:27:43.013Z,26.70
2022-09-28T06:30:13.750Z,26.70
2022-09-28T06:32:41.512Z,26.70
2022-09-28T06:35:12.122Z,26.70
2022-09-28T06:37:40.875Z,26.70
2022-09-28T06:40:09.526Z,26.70
2022-09-28T06:42:38.351Z,26.70
2022-09-28T06:45:12.037Z,26.70
2022-09-28T06:47:39.534Z,26.70
2022-09-28T06:50:12.485Z,26.70
2022-09-28T06:52:40.781Z,26.70
2022-09-28T06:55:09.537Z,26.70
2022-09-28T06:57:37.833Z,26.70
2022-09-28T07:00:05.542Z,26.70
2022-09-28T07:02:49.355Z,26.70
2022-09-28T07:05:17.137Z,26.70
2022-09-28T07:07:45.058Z,26.70
2022-09-28T07:10:13.940Z,26.70
2022-09-28T07:12:43.462Z,26.70
2022-09-28T07:15:12.768Z,26.60
2022-09-28T07:17:54.614Z,26.60
2022-09-28T07:20:26.528Z,26.60
2022-09-28T07:22:56.012Z,26.60
2022-09-28T07:25:24.522Z,26.50
2022-09-28T07:27:55.762Z,26.50
2022-09-28T07:30:24.641Z,26.50
2022-09-28T07:32:52.416Z,26.50
2022-09-28T07:35:20.152Z,26.50
2022-09-28T07:37:48.485Z,26.50
2022-09-28T07:40:36.020Z,26.40
2022-09-28T07:43:07.115Z,26.40
2022-09-28T07:45:37.699Z,26.40
2022-09-28T07:48:05.267Z,26.40
2022-09-28T07:50:32.894Z,26.40
2022-09-28T07:53:01.769Z,26.40
2022-09-28T07:55:29.313Z,26.40
2022-09-28T07:58:01.343Z,26.40
2022-09-28T08:00:33.910Z,26.40
2022-09-28T08:03:03.328Z,26.40
2022-09-28T08:05:32.358Z,26.30
2022-09-28T08:08:00.798Z,26.30
2022-09-28T08:10:28.339Z,26.30
2022-09-28T08:13:00.557Z,26.20
2022-09-28T08:15:37.155Z,26.20
2022-09-28T08:18:04.967Z,26.10
2022-09-28T08:20:49.372Z,26.10
2022-09-28T08:23:20.824Z,26.00
2022-09-28T08:25:49.937Z,26.00
2022-09-28T08:28:21.699Z,25.90
2022-09-28T08:30:52.572Z,25.90
2022-09-28T08:33:23.962Z,25.90
2022-09-28T08:36:00.099Z,25.80
2022-09-28T08:38:29.633Z,25.80
2022-09-28T08:41:20.123Z,25.80
2022-09-28T08:44:08.110Z,25.80
2022-09-28T08:46:55.294Z,25.80
2022-09-28T08:49:32.783Z,25.80
2022-09-28T08:52:05.217Z,25.80
2022-09-28T08:54:40.700Z,25.80
2022-09-28T08:57:13.453Z,25.80
2022-09-28T09:00:00.101Z,25.80
2022-09-28T09:02:39.886Z,25.80
2022-09-28T09:05:13.222Z,25.80
2022-09-28T09:07:52.989Z,25.80
2022-09-28T09:10:34.151Z,25.80
2022-09-28T09:13:22.051Z,25.70
2022-09-28T09:16:09.202Z,25.80
2022-09-28T09:18:54.849Z,25.70
2022-09-28T09:21:42.212Z,25.70
2022-09-28T09:24:30.834Z,25.60
2022-09-28T09:27:18.789Z,25.70
2022-09-28T09:29:56.998Z,25.70
2022-09-28T09:32:44.173Z,25.60
2022-09-28T09:35:30.887Z,25.60
2022-09-28T09:38:07.346Z,25.60
2022-09-28T09:40:47.946Z,25.60
2022-09-28T09:43:31.624Z,25.60
2022-09-28T09:46:06.611Z,25.60
2022-09-28T09:48:54.331Z,25.60
2022-09-28T09:51:35.349Z,25.60
2022-09-28T09:54:05.241Z,25.60
2022-09-28T09:56:53.634Z,25.60
2022-09-28T09:59:24.471Z,25.60
2022-09-28T10:01:56.226Z,25.60
2022-09-28T10:04:29.206Z,25.60
2022-09-28T10:07:00.224Z,25.60
2022-09-28T10:09:31.317Z,25.60
2022-09-28T10:11:58.908Z,25.60
2022-09-28T10:14:30.378Z,25.60
2022-09-28T10:16:58.441Z,25.60
2022-09-28T10:19:32.517Z,25.60
2022-09-28T10:22:08.045Z,25.50
2022-09-28T10:24:47.024Z,25.60
2022-09-28T10:27:18.507Z,25.50
2022-09-28T10:30:01.349Z,25.50
2022-09-28T10:32:37.769Z,25.50
2022-09-28T10:35:25.451Z,25.50
2022-09-28T10:37:56.509Z,25.50
2022-09-28T10:40:37.542Z,25.40
2022-09-28T10:43:09.178Z,25.40
2022-09-28T10:45:37.650Z,25.40
2022-09-28T10:48:06.874Z,25.40
2022-09-28T10:50:35.211Z,25.40
2022-09-28T10:53:15.015Z,25.40
2022-09-28T10:55:43.415Z,25.40
2022-09-28T10:58:24.392Z,25.40
2022-09-28T11:00:53.811Z,25.40
2022-09-28T11:03:24.001Z,25.40
2022-09-28T11:06:00.021Z,25.40
2022-09-28T11:08:35.122Z,25.40
2022-09-28T11:11:05.259Z,25.40
2022-09-28T11:13:39.238Z,25.40
2022-09-28T11:16:07.040Z,25.40
2022-09-28T11:18:34.734Z,25.40
2022-09-28T11:21:21.950Z,25.40
2022-09-28T11:24:09.135Z,25.40
2022-09-28T11:26:42.178Z,25.30
2022-09-28T11:29:21.026Z,25.30
2022-09-28T11:31:49.858Z,25.40
2022-09-28T11:34:31.483Z,25.30
2022-09-28T11:37:33.377Z,25.30
2022-09-28T11:40:20.658Z,25.30
2022-09-28T11:43:01.327Z,25.30
2022-09-28T11:45:48.648Z,25.30
2022-09-28T11:48:21.104Z,25.30
2022-09-28T11:51:01.531Z,25.30
2022-09-28T11:53:38.372Z,25.30
2022-09-28T11:56:27.163Z,25.30
2022-09-28T11:58:56.651Z,25.30
2022-09-28T12:01:32.393Z,25.30
2022-09-28T12:04:03.878Z,25.30
2022-09-28T12:06:51.447Z,25.30
2022-09-28T12:09:38.530Z,25.30
2022-09-28T12:12:11.432Z,25.30
2022-09-28T12:14:39.764Z,25.30
2022-09-28T12:17:11.649Z,25.30
2022-09-28T12:19:41.621Z,25.30
2022-09-28T12:22:21.408Z,25.30
2022-09-28T12:24:55.020Z,25.20
2022-09-28T12:27:42.463Z,25.20
2022-09-28T12:30:20.457Z,25.20
2022-09-28T12:33:09.408Z,25.20
2022-09-28T12:35:56.795Z,25.20
2022-09-28T12:38:31.974Z,25.20
2022-09-28T12:41:20.088Z,25.20
2022-09-28T12:44:07.219Z,25.20
2022-09-28T12:46:50.062Z,25.20
2022-09-28T12:50:33.277Z,25.20
2022-09-28T12:52:26.223Z,25.20
2022-09-28T12:55:04.349Z,25.20
2022-09-28T12:57:38.809Z,25.20
2022-09-28T13:00:09.416Z,25.20
2022-09-28T13:02:46.617Z,25.20
2022-09-28T13:05:26.384Z,25.20
2022-09-28T13:08:06.170Z,25.20
2022-09-28T13:10:42.949Z,25.20
2022-09-28T13:13:30.127Z,25.20
2022-09-28T13:16:17.817Z,25.20
2022-09-28T13:19:05.145Z,25.10
2022-09-28T13:21:42.108Z,25.10
2022-09-28T13:24:31.494Z,25.10
2022-09-28T13:27:07.483Z,25.00
2022-09-28T13:29:36.059Z,25.00
2022-09-28T13:32:04.410Z,25.00
2022-09-28T13:34:33.688Z,24.90
2022-09-28T13:37:13.918Z,24.90
2022-09-28T13:39:52.860Z,24.80
2022-09-28T13:42:40.355Z,24.80
2022-09-28T13:45:20.902Z,24.80
2022-09-28T13:48:00.791Z,24.80
2022-09-28T13:50:48.184Z,24.80
2022-09-28T13:53:36.143Z,24.80
2022-09-28T13:56:15.982Z,24.80
2022-09-28T13:58:47.017Z,24.70
2022-09-28T14:01:27.289Z,24.80
2022-09-28T14:04:10.595Z,24.70
2022-09-28T14:06:38.396Z,24.70
2022-09-28T14:09:26.728Z,24.70
2022-09-28T14:12:01.557Z,24.80
2022-09-28T14:14:47.376Z,24.80
2022-09-28T14:17:35.360Z,24.80
2022-09-28T14:20:05.498Z,24.80
2022-09-28T14:22:52.800Z,24.80
2022-09-28T14:25:28.540Z,24.80
2022-09-28T14:28:08.368Z,24.80
2022-09-28T14:30:59.171Z,24.80
2022-09-28T14:33:32.076Z,24.80
2022-09-28T14:36:05.178Z,24.80
2022-09-28T14:38:50.745Z,24.70
2022-09-28T14:41:36.104Z,24.80
2022-09-28T14:44:08.297Z,24.80
2022-09-28T14:46:37.279Z,24.80
2022-09-28T14:49:17.183Z,24.70
2022-09-28T14:52:04.404Z,24.80
2022-09-28T14:54:46.332Z,24.80
2022-09-28T14:57:19.030Z,24.80
2022-09-28T14:59:48.003Z,24.80
2022-09-28T15:02:19.407Z,24.80
2022-09-28T15:04:54.886Z,24.80
2022-09-28T15:07:31.019Z,24.80
2022-09-28T15:10:08.469Z,24.80
2022-09-28T15:12:36.874Z,24.80
2022-09-28T15:15:09.264Z,24.80
2022-09-28T15:17:40.000Z,24.80
2022-09-28T15:20:20.915Z,24.80
2022-09-28T15:22:49.194Z,24.80
2022-09-28T15:25:24.030Z,24.80
2022-09-28T15:27:55.138Z,24.70
2022-09-28T15:30:26.391Z,24.80
2022-09-28T15:32:57.015Z,24.80
2022-09-28T15:35:28.966Z,24.70
2022-09-28T15:37:57.191Z,24.70
2022-09-28T15:40:36.220Z,24.80
2022-09-28T15:43:20.373Z,24.80
2022-09-28T15:45:58.690Z,24.80
2022-09-28T15:48:42.230Z,24.80
2022-09-28T15:51:12.034Z,24.80
2022-09-28T15:53:43.435Z,24.80
2022-09-28T15:56:12.839Z,24.80
2022-09-28T15:58:40.572Z,24.80
2022-09-28T16:01:24.366Z,24.70
2022-09-28T16:03:52.876Z,24.80
2022-09-28T16:06:20.547Z,24.80
2022-09-28T16:08:51.310Z,24.80
2022-09-28T16:11:21.918Z,24.80
2022-09-28T16:13:55.202Z,24.80
2022-09-28T16:16:25.974Z,24.80
2022-09-28T16:18:55.874Z,24.80
2022-09-28T16:21:30.623Z,24.70
2022-09-28T16:23:58.473Z,24.70
2022-09-28T16:26:29.473Z,24.80
2022-09-28T16:28:57.888Z,24.70
2022-09-28T16:31:28.990Z,24.70
2022-09-28T16:33:59.195Z,24.70
2022-09-28T16:36:30.785Z,24.70
2022-09-28T16:38:58.347Z,24.70
2022-09-28T16:41:27.389Z,24.70
2022-09-28T16:43:57.766Z,24.70
2022-09-28T16:46:30.443Z,24.70
2022-09-28T16:49:00.048Z,24.70
2022-09-28T16:51:28.177Z,24.70
2022-09-28T16:54:10.871Z,24.60
2022-09-28T16:56:38.807Z,24.60
2022-09-28T16:59:06.289Z,24.60
2022-09-28T17:01:34.616Z,24.60
2022-09-28T17:04:03.092Z,24.60
2022-09-28T17:06:31.571Z,24.60
2022-09-28T17:09:01.220Z,24.60
2022-09-28T17:11:29.601Z,24.60
2022-09-28T17:13:59.361Z,24.60
2022-09-28T17:16:57.322Z,24.60
2022-09-28T17:19:25.164Z,24.60
2022-09-28T17:21:55.501Z,24.60
2022-09-28T17:24:23.866Z,24.60
2022-09-28T17:26:52.280Z,24.60
2022-09-28T17:29:20.030Z,24.60
2022-09-28T17:31:48.285Z,24.50
2022-09-28T17:34:21.112Z,24.50
2022-09-28T17:36:48.790Z,24.60
2022-09-28T17:39:18.791Z,24.50
2022-09-28T17:41:46.481Z,24.50
2022-09-28T17:44:17.309Z,24.50
2022-09-28T17:46:48.968Z,24.50
2022-09-28T17:49:17.336Z,24.50
2022-09-28T17:51:44.939Z,24.50
2022-09-28T17:54:13.823Z,24.50
2022-09-28T17:56:43.934Z,24.50
2022-09-28T17:59:14.276Z,24.50
2022-09-28T18:01:41.881Z,24.50
2022-09-28T18:04:19.198Z,24.50
2022-09-28T18:06:55.419Z,24.50
2022-09-28T18:09:25.982Z,24.50
2022-09-28T18:11:59.810Z,24.50
2022-09-28T18:14:27.538Z,24.50
2022-09-28T18:16:55.843Z,24.50
2022-09-28T18:19:23.380Z,24.50
2022-09-28T18:21:50.996Z,24.50
2022-09-28T18:24:22.435Z,24.50
2022-09-28T18:26:49.911Z,24.50
2022-09-28T18:29:18.019Z,24.50
2022-09-28T18:31:46.211Z,24.50
2022-09-28T18:34:13.877Z,24.50
2022-09-28T18:36:44.446Z,24.50
2022-09-28T18:39:12.431Z,24.50
2022-09-28T18:41:40.031Z,24.50
2022-09-28T18:44:07.663Z,24.50
2022-09-28T18:46:39.419Z,24.50
2022-09-28T18:49:08.012Z,24.50
2022-09-28T18:51:37.825Z,24.50
2022-09-28T18:54:12.653Z,24.50
2022-09-28T18:56:42.176Z,24.50
2022-09-28T18:59:21.031Z,24.50
2022-09-28T19:01:50.241Z,24.50
2022-09-28T19:04:20.210Z,24.50
2022-09-28T19:06:58.605Z,24.50
2022-09-28T19:09:29.236Z,24.50
2022-09-28T19:11:58.106Z,24.50
2022-09-28T19:14:26.668Z,24.50
2022-09-28T19:16:54.759Z,24.50
2022-09-28T19:19:23.167Z,24.50
2022-09-28T19:21:55.510Z,24.50
2022-09-28T19:24:24.519Z,24.50
2022-09-28T19:26:56.573Z,24.50
2022-09-28T19:29:25.021Z,24.40
2022-09-28T19:31:54.549Z,24.40
2022-09-28T19:34:25.568Z,24.30
2022-09-28T19:36:53.214Z,24.30
2022-09-28T19:39:20.733Z,24.30
2022-09-28T19:41:51.544Z,24.30
2022-09-28T19:44:27.943Z,24.30
2022-09-28T19:47:07.238Z,24.20
2022-09-28T19:49:43.103Z,24.20
2022-09-28T19:52:16.585Z,24.20
2022-09-28T19:54:59.202Z,24.20
2022-09-28T19:57:28.082Z,24.10
2022-09-28T20:00:03.287Z,24.10
2022-09-28T20:02:35.291Z,24.20
2022-09-28T20:05:04.095Z,24.10
2022-09-28T20:07:37.256Z,24.10
2022-09-28T20:10:05.712Z,24.10
2022-09-28T20:12:34.785Z,24.10
2022-09-28T20:15:02.272Z,24.00
2022-09-28T20:17:29.779Z,24.00
2022-09-28T20:19:58.764Z,24.00
2022-09-28T20:22:29.632Z,24.00
2022-09-28T20:24:57.504Z,24.00
2022-09-28T20:27:27.262Z,24.00
2022-09-28T20:29:55.116Z,23.90
2022-09-28T20:32:23.546Z,23.90
2022-09-28T20:34:51.445Z,23.90
2022-09-28T20:37:19.630Z,23.90
2022-09-28T20:39:47.181Z,23.90
2022-09-28T20:42:16.586Z,23.90
2022-09-28T20:44:57.304Z,23.90
2022-09-28T20:47:25.474Z,23.90
2022-09-28T20:49:54.563Z,23.90
2022-09-28T20:52:23.696Z,23.90
2022-09-28T20:54:51.257Z,23.90
2022-09-28T20:57:21.783Z,23.90
2022-09-28T20:59:54.330Z,23.90
2022-09-28T21:02:22.705Z,23.90
2022-09-28T21:04:50.280Z,23.90
2022-09-28T21:07:20.767Z,23.90
2022-09-28T21:09:48.662Z,23.90
2022-09-28T21:12:16.697Z,23.90
2022-09-28T21:14:44.201Z,23.90
2022-09-28T21:17:11.810Z,23.90
2022-09-28T21:19:39.396Z,23.90
2022-09-28T21:22:07.082Z,23.90
2022-09-28T21:24:34.678Z,24.00
2022-09-28T21:27:02.669Z,23.90
2022-09-28T21:29:30.155Z,23.90
2022-09-28T21:31:57.761Z,23.90
2022-09-28T21:34:26.380Z,23.90
2022-09-28T21:36:54.663Z,23.90
2022-09-28T21:39:22.426Z,23.90
2022-09-28T21:41:56.095Z,24.00
2022-09-28T21:44:24.368Z,23.90
2022-09-28T21:46:52.435Z,23.90
2022-09-28T21:49:20.484Z,23.90
2022-09-28T21:51:48.020Z,23.90
2022-09-28T21:54:15.670Z,23.90
2022-09-28T21:56:43.253Z,24.00
2022-09-28T21:59:10.765Z,23.90
2022-09-28T22:01:38.315Z,23.90
2022-09-28T22:04:06.207Z,24.00
2022-09-28T22:06:34.468Z,23.90
2022-09-28T22:09:01.962Z,24.00
2022-09-28T22:11:32.813Z,24.00
2022-09-28T22:14:01.649Z,23.90
2022-09-28T22:16:30.548Z,24.00
2022-09-28T22:18:58.810Z,24.00
2022-09-28T22:21:37.638Z,24.00
2022-09-28T22:24:06.663Z,24.00
2022-09-28T22:26:39.770Z,24.00
2022-09-28T22:29:08.603Z,24.00
2022-09-28T22:31:38.073Z,24.00
2022-09-28T22:34:06.141Z,24.00
2022-09-28T22:36:33.716Z,24.00
2022-09-28T22:39:02.242Z,24.00
2022-09-28T22:41:30.154Z,24.00
2022-09-28T22:43:57.855Z,23.90
2022-09-28T22:46:28.482Z,23.90
2022-09-28T22:48:57.479Z,23.90
2022-09-28T22:51:29.060Z,23.90
2022-09-28T22:53:56.994Z,23.90
2022-09-28T22:56:25.833Z,23.90
2022-09-28T22:58:53.548Z,23.90
2022-09-28T23:01:23.386Z,23.80
2022-09-28T23:03:52.196Z,23.80
2022-09-28T23:06:22.101Z,23.80
2022-09-28T23:08:51.774Z,23.80
2022-09-28T23:11:19.575Z,23.80
2022-09-28T23:13:50.960Z,23.90
2022-09-28T23:16:18.671Z,23.80
2022-09-28T23:18:47.436Z,23.80
2022-09-28T23:21:16.822Z,23.80
2022-09-28T23:23:46.224Z,23.80
2022-09-28T23:26:14.705Z,23.80
2022-09-28T23:28:42.643Z,23.80
2022-09-28T23:31:17.881Z,23.80
2022-09-28T23:33:46.629Z,23.80
2022-09-28T23:36:15.307Z,23.80
2022-09-28T23:38:42.990Z,23.80
2022-09-28T23:41:10.775Z,23.80
2022-09-28T23:43:38.655Z,23.90
2022-09-28T23:46:06.947Z,23.90
2022-09-28T23:48:35.529Z,23.90
2022-09-28T23:51:06.192Z,23.90
2022-09-28T23:53:33.948Z,23.90
2022-09-28T23:56:05.073Z,24.00
2022-09-28T23:58:35.649Z,24.00
